Time;durP1;ratioP1;P1;durP2;ratioP2;P2;SDS_P1;SDS_P2;PMS_P1;PMS_P2;Temp;Humidity;BMP_temperature;BMP_pressure;BME280_temperature;BME280_humidity;BME280_pressure;Samples;Min_cycle;Max_cycle;Signal;HPM_P1;HPM_P2
2024/02/25 00:01:42;;;;;;;2.20;2.00;;;10.00;98.20;;;;;;5035805;28;20235;-78
2024/02/25 00:04:11;;;;;;;2.50;2.30;;;10.00;98.20;;;;;;5027627;28;20279;-78
2024/02/25 00:06:40;;;;;;;2.80;2.60;;;10.00;98.10;;;;;;5035893;28;20273;-78
2024/02/25 00:09:10;;;;;;;2.25;2.08;;;10.00;98.10;;;;;;5036048;28;20221;-78
2024/02/25 00:11:43;;;;;;;2.92;2.72;;;10.00;98.00;;;;;;5035752;28;20218;-78
2024/02/25 00:14:10;;;;;;;3.67;2.72;;;9.90;98.80;;;;;;5035176;28;20309;-78
2024/02/25 00:16:48;;;;;;;2.33;2.13;;;9.90;98.50;;;;;;5034340;28;20234;-78
2024/02/25 00:19:17;;;;;;;2.38;2.08;;;9.80;98.50;;;;;;5026099;28;20666;-78
2024/02/25 00:21:44;;;;;;;2.60;2.40;;;9.80;98.50;;;;;;5034325;28;20229;-78
2024/02/25 00:24:11;;;;;;;1.90;1.80;;;9.80;98.60;;;;;;5035542;28;20264;-78
2024/02/25 00:26:39;;;;;;;3.35;2.38;;;9.70;98.60;;;;;;5035499;28;20283;-78
2024/02/25 00:29:07;;;;;;;2.08;1.92;;;9.70;98.60;;;;;;5035946;28;20225;-79
2024/02/25 00:31:37;;;;;;;2.47;2.00;;;9.70;98.60;;;;;;5027206;28;20617;-79
2024/02/25 00:34:06;;;;;;;3.92;2.40;;;9.70;98.60;;;;;;5035514;28;20229;-79
2024/02/25 00:36:33;;;;;;;3.70;2.75;;;9.70;98.60;;;;;;5032337;28;20236;-78
2024/02/25 00:39:02;;;;;;;2.40;2.15;;;9.70;98.60;;;;;;5035110;28;20236;-78
2024/02/25 00:41:28;;;;;;;2.03;1.80;;;9.70;98.60;;;;;;5034730;28;20235;-78
2024/02/25 00:43:55;;;;;;;2.78;2.00;;;9.80;98.60;;;;;;5035069;28;20225;-78
2024/02/25 00:46:22;;;;;;;2.30;2.10;;;9.80;98.60;;;;;;5035286;28;20225;-78
2024/02/25 00:48:53;;;;;;;2.15;1.95;;;9.80;98.50;;;;;;5024393;28;20236;-78
2024/02/25 00:51:28;;;;;;;2.58;2.38;;;9.80;98.40;;;;;;5035041;28;20232;-78
2024/02/25 00:53:55;;;;;;;3.30;3.05;;;9.70;98.30;;;;;;5035189;28;20244;-78
2024/02/25 00:56:22;;;;;;;5.82;5.22;;;9.80;98.40;;;;;;5035611;28;20291;-78
2024/02/25 00:58:49;;;;;;;8.98;7.57;;;9.80;98.50;;;;;;5034473;28;20235;-78
2024/02/25 01:01:16;;;;;;;9.88;6.50;;;9.70;98.60;;;;;;5035729;28;20231;-78
2024/02/25 01:03:43;;;;;;;6.35;5.28;;;9.80;98.60;;;;;;5034844;28;20567;-78
2024/02/25 01:06:10;;;;;;;3.63;3.33;;;9.80;98.60;;;;;;5034866;28;20225;-78
2024/02/25 01:08:45;;;;;;;2.45;2.25;;;9.80;98.50;;;;;;5034227;28;20225;-78
2024/02/25 01:11:12;;;;;;;2.33;2.17;;;9.90;98.60;;;;;;5035378;28;20298;-78
2024/02/25 01:13:39;;;;;;;3.20;2.60;;;9.90;98.60;;;;;;5034284;28;20236;-78
2024/02/25 01:16:09;;;;;;;3.08;2.20;;;9.90;98.60;;;;;;5035270;28;20222;-78
2024/02/25 01:18:36;;;;;;;2.40;1.92;;;9.90;98.60;;;;;;5035104;28;20252;-78
2024/02/25 01:21:07;;;;;;;6.85;2.28;;;9.90;98.70;;;;;;5034783;28;20267;-78
2024/02/25 01:23:34;;;;;;;2.55;2.30;;;9.90;98.60;;;;;;5035025;28;20228;-78
2024/02/25 01:26:05;;;;;;;2.15;2.05;;;9.90;98.60;;;;;;5024490;28;20650;-78
2024/02/25 01:28:35;;;;;;;2.22;2.03;;;9.90;98.60;;;;;;5034235;28;20240;-78
2024/02/25 01:31:03;;;;;;;2.60;2.40;;;9.90;98.60;;;;;;5034451;28;20719;-78
2024/02/25 01:33:30;;;;;;;5.65;2.40;;;9.90;98.90;;;;;;5034533;28;20225;-78
2024/02/25 01:35:57;;;;;;;2.45;2.25;;;9.90;98.90;;;;;;5034093;28;20251;-78
2024/02/25 01:38:26;;;;;;;2.38;2.20;;;9.90;98.90;;;;;;5034860;28;20225;-78
2024/02/25 01:40:53;;;;;;;2.78;2.55;;;9.90;98.80;;;;;;5034113;28;20316;-78
2024/02/25 01:43:22;;;;;;;2.10;1.88;;;9.90;98.80;;;;;;5034545;28;20233;-79
2024/02/25 01:45:49;;;;;;;2.90;2.45;;;9.90;98.80;;;;;;5033634;28;20223;-78
2024/02/25 01:48:23;;;;;;;2.60;2.40;;;9.90;98.80;;;;;;5034718;28;20221;-79
2024/02/25 01:50:51;;;;;;;3.55;2.08;;;9.90;98.90;;;;;;5033402;28;20241;-78
2024/02/25 01:53:19;;;;;;;2.95;2.40;;;9.90;98.80;;;;;;5034217;28;20241;-78
2024/02/25 01:55:50;;;;;;;3.63;2.38;;;9.80;98.90;;;;;;5033819;28;20225;-78
2024/02/25 01:58:18;;;;;;;2.25;2.05;;;9.80;99.20;;;;;;5033889;28;20225;-78
2024/02/25 02:00:47;;;;;;;2.63;2.42;;;9.80;98.90;;;;;;5024235;28;20624;-78
2024/02/25 02:03:15;;;;;;;3.50;2.95;;;9.80;99.00;;;;;;5023492;28;20225;-78
2024/02/25 02:05:43;;;;;;;3.15;2.85;;;9.80;99.20;;;;;;5033924;28;20613;-78
2024/02/25 02:08:10;;;;;;;2.35;2.15;;;9.90;99.10;;;;;;5033138;28;20240;-78
2024/02/25 02:10:45;;;;;;;2.80;2.15;;;9.80;99.10;;;;;;5034288;28;20236;-78
2024/02/25 02:13:12;;;;;;;2.75;2.55;;;9.80;99.10;;;;;;5022413;28;20631;-79
2024/02/25 02:15:42;;;;;;;2.83;2.20;;;9.80;98.90;;;;;;5033329;28;20229;-78
2024/02/25 02:18:12;;;;;;;2.78;2.58;;;9.80;99.00;;;;;;5033483;28;20671;-78
2024/02/25 02:20:40;;;;;;;4.18;2.55;;;9.80;99.10;;;;;;5033520;28;20225;-78
2024/02/25 02:23:09;;;;;;;2.25;2.15;;;9.80;99.30;;;;;;5033885;28;20533;-79
2024/02/25 02:25:36;;;;;;;2.83;2.55;;;9.90;99.40;;;;;;5033355;28;20249;-79
2024/02/25 02:28:03;;;;;;;2.97;2.60;;;9.90;99.30;;;;;;5034131;28;20217;-79
2024/02/25 02:30:33;;;;;;;3.40;3.10;;;9.80;99.10;;;;;;5024994;28;20229;-79
2024/02/25 02:33:00;;;;;;;3.75;2.65;;;9.80;99.20;;;;;;5033072;28;20221;-78
2024/02/25 02:35:29;;;;;;;3.38;3.08;;;9.80;99.30;;;;;;5033380;28;20222;-78
2024/02/25 02:37:56;;;;;;;3.00;2.53;;;9.80;99.50;;;;;;5033048;28;20229;-78
2024/02/25 02:40:24;;;;;;;2.72;2.47;;;9.80;99.80;;;;;;5033930;28;20221;-78
2024/02/25 02:42:57;;;;;;;3.08;2.55;;;9.80;99.80;;;;;;5031542;28;20232;-78
2024/02/25 02:45:24;;;;;;;2.97;2.75;;;9.70;99.90;;;;;;5033017;28;20538;-79
2024/02/25 02:47:51;;;;;;;4.07;2.47;;;9.70;99.90;;;;;;5032677;28;20245;-78
2024/02/25 02:50:18;;;;;;;3.08;2.72;;;9.60;99.90;;;;;;5032152;28;20240;-79
2024/02/25 02:52:45;;;;;;;3.45;2.95;;;9.60;99.90;;;;;;5032873;28;20225;-78
2024/02/25 02:55:12;;;;;;;2.80;2.60;;;9.60;99.90;;;;;;5030743;28;20690;-79
2024/02/25 02:57:41;;;;;;;4.07;3.28;;;9.60;99.90;;;;;;5032996;28;20671;-78
2024/02/25 03:00:11;;;;;;;4.13;3.03;;;9.60;99.90;;;;;;5033242;28;20221;-78
2024/02/25 03:02:38;;;;;;;3.10;2.90;;;9.50;99.90;;;;;;5032331;28;20619;-78
2024/02/25 03:05:05;;;;;;;2.85;2.65;;;9.50;99.90;;;;;;5031774;28;20244;-78
2024/02/25 03:07:32;;;;;;;3.00;2.72;;;9.50;99.90;;;;;;5032944;28;20221;-78
2024/02/25 03:10:00;;;;;;;3.42;3.13;;;9.50;99.90;;;;;;5032708;28;20272;-78
2024/02/25 03:12:30;;;;;;;3.15;2.85;;;9.50;99.90;;;;;;5033175;28;20221;-78
2024/02/25 03:14:58;;;;;;;3.40;2.92;;;9.60;99.90;;;;;;5022386;28;20221;-78
2024/02/25 03:17:25;;;;;;;4.30;3.22;;;9.60;99.90;;;;;;5033145;28;20248;-78
2024/02/25 03:19:54;;;;;;;3.25;2.95;;;9.50;99.90;;;;;;5032044;28;20679;-78
2024/02/25 03:22:21;;;;;;;4.63;3.67;;;9.60;99.90;;;;;;5032923;28;21539;-78
2024/02/25 03:24:48;;;;;;;3.22;3.00;;;9.50;99.90;;;;;;5032205;28;20213;-78
2024/02/25 03:27:16;;;;;;;4.05;3.72;;;9.50;99.90;;;;;;5032891;28;20221;-78
2024/02/25 03:29:51;;;;;;;6.20;3.40;;;9.50;99.90;;;;;;5032668;28;20217;-78
2024/02/25 03:32:20;;;;;;;3.40;3.10;;;9.50;99.90;;;;;;5032081;28;20299;-78
2024/02/25 03:34:47;;;;;;;5.93;3.80;;;9.50;99.90;;;;;;5030996;28;20229;-78
2024/02/25 03:37:14;;;;;;;3.38;3.08;;;9.50;99.90;;;;;;5032280;28;20217;-78
2024/02/25 03:39:41;;;;;;;3.55;3.22;;;9.50;99.90;;;;;;5032200;28;20221;-78
2024/02/25 03:42:09;;;;;;;3.35;2.92;;;9.50;99.90;;;;;;5032561;28;20225;-78
2024/02/25 03:44:35;;;;;;;5.00;3.40;;;9.50;99.90;;;;;;5032176;28;20232;-78
2024/02/25 03:47:03;;;;;;;3.38;3.08;;;9.50;99.90;;;;;;5032172;28;20236;-78
2024/02/25 03:49:31;;;;;;;4.00;3.67;;;9.40;99.90;;;;;;5032653;28;20221;-78
2024/02/25 03:51:59;;;;;;;3.90;3.60;;;9.40;99.90;;;;;;5030897;28;20245;-78
2024/02/25 03:54:26;;;;;;;4.75;4.35;;;9.40;99.90;;;;;;5032849;28;20229;-78
2024/02/25 03:56:55;;;;;;;3.67;3.38;;;9.40;99.90;;;;;;5033143;28;20229;-78
2024/02/25 03:59:25;;;;;;;3.97;3.50;;;9.40;99.90;;;;;;5023738;28;20225;-78
2024/02/25 04:01:52;;;;;;;3.95;3.22;;;9.30;99.90;;;;;;5032743;28;20226;-78
2024/02/25 04:04:21;;;;;;;3.90;3.58;;;9.20;99.90;;;;;;5032043;28;20552;-78
2024/02/25 04:06:49;;;;;;;4.53;4.13;;;9.20;99.90;;;;;;5032634;28;20684;-78
2024/02/25 04:09:20;;;;;;;3.95;3.55;;;9.10;99.90;;;;;;5031056;28;20569;-78
2024/02/25 04:11:47;;;;;;;5.32;4.22;;;9.10;99.90;;;;;;5032777;28;20308;-78
2024/02/25 04:14:14;;;;;;;4.43;4.03;;;9.00;99.90;;;;;;5023580;28;20712;-77
2024/02/25 04:16:41;;;;;;;6.95;3.60;;;9.00;99.90;;;;;;5035883;28;20226;-77
2024/02/25 04:19:11;;;;;;;4.45;4.05;;;9.00;99.90;;;;;;5035881;28;20221;-78
2024/02/25 04:21:38;;;;;;;4.57;3.75;;;9.00;99.90;;;;;;5036322;28;20229;-77
2024/02/25 04:24:07;;;;;;;5.88;4.65;;;8.90;99.90;;;;;;5035336;28;20299;-77
2024/02/25 04:26:34;;;;;;;5.55;4.00;;;9.00;99.90;;;;;;5036402;28;20297;-78
2024/02/25 04:29:01;;;;;;;4.50;4.10;;;9.00;99.90;;;;;;5026587;28;20244;-78
2024/02/25 04:31:29;;;;;;;4.72;3.80;;;9.00;99.90;;;;;;5036091;28;20536;-78
2024/02/25 04:34:02;;;;;;;4.65;4.25;;;9.00;99.90;;;;;;5035887;28;20287;-78
2024/02/25 04:36:31;;;;;;;5.22;4.07;;;9.00;99.90;;;;;;5035433;28;20283;-78
2024/02/25 04:38:58;;;;;;;4.70;4.20;;;8.90;99.90;;;;;;5035632;28;20271;-76
2024/02/25 04:41:28;;;;;;;4.30;3.90;;;8.90;99.90;;;;;;5035528;28;20666;-77
2024/02/25 04:43:55;;;;;;;3.97;3.67;;;8.90;99.90;;;;;;5036101;28;20234;-77
2024/02/25 04:46:22;;;;;;;3.80;3.50;;;8.90;99.90;;;;;;5035165;28;20225;-77
2024/02/25 04:48:50;;;;;;;5.00;4.50;;;8.80;99.90;;;;;;5036079;28;20560;-78
2024/02/25 04:51:18;;;;;;;3.63;3.33;;;8.70;99.90;;;;;;5034674;28;20237;-77
2024/02/25 04:53:46;;;;;;;4.82;4.43;;;8.70;99.90;;;;;;5035699;28;20225;-77
2024/02/25 04:56:16;;;;;;;6.38;4.53;;;8.70;99.90;;;;;;5034946;28;20566;-78
2024/02/25 04:58:44;;;;;;;4.07;3.65;;;8.60;99.90;;;;;;5035472;28;20679;-78
2024/02/25 05:01:14;;;;;;;4.55;4.15;;;8.60;99.90;;;;;;5034328;28;20226;-78
2024/02/25 05:03:41;;;;;;;4.43;4.03;;;8.60;99.90;;;;;;5034847;28;20229;-77
2024/02/25 05:06:09;;;;;;;6.15;3.85;;;8.60;99.90;;;;;;5035616;28;20247;-78
2024/02/25 05:08:36;;;;;;;4.32;3.92;;;8.60;99.90;;;;;;5035161;28;20222;-77
2024/02/25 05:11:06;;;;;;;6.05;4.38;;;8.60;99.90;;;;;;5035533;28;20232;-78
2024/02/25 05:13:34;;;;;;;5.13;4.72;;;8.50;99.90;;;;;;5024071;28;20555;-78
2024/02/25 05:16:06;;;;;;;5.45;4.40;;;8.50;99.90;;;;;;5035127;28;20260;-77
2024/02/25 05:18:36;;;;;;;4.10;3.70;;;8.50;99.90;;;;;;5034893;28;20660;-77
2024/02/25 05:21:06;;;;;;;5.40;4.90;;;8.40;99.90;;;;;;5014261;28;20221;-77
2024/02/25 05:23:33;;;;;;;5.43;4.40;;;8.40;99.90;;;;;;5034972;28;20233;-76
2024/02/25 05:26:05;;;;;;;4.45;3.90;;;8.40;99.90;;;;;;5033645;28;20271;-77
2024/02/25 05:28:32;;;;;;;4.63;4.25;;;8.40;99.90;;;;;;5035070;28;20331;-76
2024/02/25 05:31:06;;;;;;;4.85;4.30;;;8.40;99.90;;;;;;5035685;28;20259;-77
2024/02/25 05:33:38;;;;;;;5.53;4.30;;;8.40;99.90;;;;;;5023912;28;20231;-77
2024/02/25 05:36:06;;;;;;;5.25;4.13;;;8.40;99.90;;;;;;5035145;28;20244;-77
2024/02/25 05:38:33;;;;;;;4.75;4.35;;;8.40;99.90;;;;;;5036690;28;20297;-77
2024/02/25 05:41:00;;;;;;;6.78;5.03;;;8.30;99.90;;;;;;5034833;28;20225;-77
2024/02/25 05:43:27;;;;;;;4.60;4.05;;;8.40;99.90;;;;;;5034979;28;20229;-77
2024/02/25 05:45:56;;;;;;;4.78;4.38;;;8.40;99.90;;;;;;5034544;28;20241;-77
2024/02/25 05:48:26;;;;;;;5.18;4.60;;;8.30;99.90;;;;;;5034153;28;20229;-77
2024/02/25 05:50:54;;;;;;;4.50;4.20;;;8.30;99.90;;;;;;5034679;28;20229;-78
2024/02/25 05:53:28;;;;;;;4.18;3.85;;;8.30;99.90;;;;;;5034339;28;20229;-78
2024/02/25 05:56:01;;;;;;;4.20;3.80;;;8.30;99.90;;;;;;5034146;28;20268;-78
2024/02/25 05:58:31;;;;;;;4.80;4.40;;;8.40;99.90;;;;;;5034696;28;20220;-78
2024/02/25 06:01:00;;;;;;;4.35;3.95;;;8.40;99.90;;;;;;5034609;28;20275;-78
2024/02/25 06:03:27;;;;;;;6.20;4.93;;;8.40;99.90;;;;;;5033422;28;20233;-78
2024/02/25 06:05:57;;;;;;;5.13;4.57;;;8.40;99.90;;;;;;5034242;28;20222;-78
2024/02/25 06:08:26;;;;;;;4.80;4.15;;;8.30;99.90;;;;;;5012957;28;20226;-79
2024/02/25 06:10:53;;;;;;;5.00;4.50;;;8.30;99.90;;;;;;5033501;28;20225;-78
2024/02/25 06:13:21;;;;;;;5.43;4.13;;;8.30;99.90;;;;;;5032992;28;20254;-78
2024/02/25 06:15:48;;;;;;;4.53;4.13;;;8.30;99.90;;;;;;5034137;28;20240;-78
2024/02/25 06:18:15;;;;;;;4.75;4.35;;;8.20;99.90;;;;;;5033248;28;20238;-77
2024/02/25 06:20:42;;;;;;;6.95;4.60;;;8.20;99.90;;;;;;5033850;28;20225;-78
2024/02/25 06:23:10;;;;;;;5.38;4.88;;;8.20;99.90;;;;;;5034033;28;20309;-78
2024/02/25 06:25:37;;;;;;;5.43;4.93;;;8.20;99.90;;;;;;5033326;28;20247;-77
2024/02/25 06:28:05;;;;;;;4.75;4.32;;;8.20;99.90;;;;;;5034096;28;20590;-77
2024/02/25 06:30:32;;;;;;;5.65;4.55;;;8.20;99.90;;;;;;5033156;28;20225;-77
2024/02/25 06:32:59;;;;;;;7.80;5.03;;;8.10;99.90;;;;;;5033677;28;20232;-77
2024/02/25 06:35:26;;;;;;;5.63;5.07;;;8.10;99.90;;;;;;5033144;28;20232;-77
2024/02/25 06:37:53;;;;;;;5.30;4.75;;;8.10;99.90;;;;;;5033030;28;20225;-77
2024/02/25 06:40:26;;;;;;;5.15;4.05;;;8.10;99.90;;;;;;5033228;28;20225;-77
2024/02/25 06:42:52;;;;;;;5.15;4.65;;;8.10;99.90;;;;;;5033624;28;20239;-77
2024/02/25 06:45:19;;;;;;;6.72;6.03;;;8.00;99.90;;;;;;5032763;28;20225;-78
2024/02/25 06:47:47;;;;;;;6.80;4.70;;;8.00;99.90;;;;;;5033530;28;20228;-78
2024/02/25 06:50:17;;;;;;;6.28;5.20;;;8.00;99.90;;;;;;5032260;28;20229;-77
2024/02/25 06:52:46;;;;;;;5.65;4.57;;;8.00;99.90;;;;;;5014610;28;20232;-77
2024/02/25 06:55:13;;;;;;;5.00;4.50;;;8.00;99.90;;;;;;5025406;28;20226;-77
2024/02/25 06:57:41;;;;;;;5.55;4.82;;;8.00;99.90;;;;;;5013442;28;20222;-77
2024/02/25 07:00:10;;;;;;;4.50;3.63;;;8.00;99.90;;;;;;5013258;28;20603;-76
2024/02/25 07:02:37;;;;;;;5.50;5.00;;;8.00;99.90;;;;;;5012981;28;20265;-78
2024/02/25 07:05:05;;;;;;;5.22;4.72;;;8.00;99.90;;;;;;5013558;28;20664;-79
2024/02/25 07:07:34;;;;;;;5.55;4.85;;;8.00;99.90;;;;;;5012775;28;20236;-79
2024/02/25 07:10:01;;;;;;;5.40;4.90;;;8.00;99.90;;;;;;5013311;28;20226;-79
2024/02/25 07:12:30;;;;;;;5.43;4.63;;;8.00;99.90;;;;;;5012987;28;20241;-78
2024/02/25 07:14:59;;;;;;;4.80;4.40;;;8.00;99.90;;;;;;5013315;28;20229;-79
2024/02/25 07:17:26;;;;;;;6.20;4.70;;;8.00;99.90;;;;;;5012830;28;20230;-79
2024/02/25 07:19:53;;;;;;;5.85;5.15;;;8.10;99.90;;;;;;5013238;28;20237;-79
2024/02/25 07:22:20;;;;;;;7.45;4.47;;;8.00;99.90;;;;;;5012907;28;20236;-79
2024/02/25 07:24:47;;;;;;;4.80;4.40;;;8.10;99.90;;;;;;5012737;28;20218;-79
2024/02/25 07:27:14;;;;;;;5.68;4.75;;;8.10;99.90;;;;;;5003824;28;20233;-79
2024/02/25 07:29:41;;;;;;;5.80;4.43;;;8.10;99.90;;;;;;5012281;28;20229;-79
2024/02/25 07:32:09;;;;;;;5.97;4.28;;;8.10;99.90;;;;;;5019078;28;20226;-79
2024/02/25 07:34:36;;;;;;;7.68;4.82;;;8.20;99.90;;;;;;5012861;28;20229;-79
2024/02/25 07:37:11;;;;;;;4.43;4.03;;;8.20;99.90;;;;;;5012912;28;20226;-79
2024/02/25 07:39:38;;;;;;;4.45;4.05;;;8.20;99.90;;;;;;5012623;28;20227;-79
2024/02/25 07:42:06;;;;;;;4.80;4.32;;;8.30;99.90;;;;;;5012591;28;20240;-79
2024/02/25 07:44:32;;;;;;;4.95;4.35;;;8.30;99.90;;;;;;5003847;28;20307;-78
2024/02/25 07:47:02;;;;;;;4.03;3.72;;;8.30;99.90;;;;;;5012903;28;20234;-79
2024/02/25 07:49:31;;;;;;;3.63;3.25;;;8.30;99.90;;;;;;5014291;28;20308;-79
2024/02/25 07:51:58;;;;;;;5.00;4.60;;;8.40;99.90;;;;;;5009031;28;20679;-79
2024/02/25 07:54:26;;;;;;;5.43;4.05;;;8.40;99.90;;;;;;5016362;28;20229;-76
2024/02/25 07:56:53;;;;;;;9.43;4.30;;;8.50;99.90;;;;;;5016246;28;20241;-77
2024/02/25 07:59:20;;;;;;;4.55;4.15;;;8.50;99.90;;;;;;5016174;28;20241;-76
2024/02/25 08:01:47;;;;;;;4.70;4.30;;;8.50;99.90;;;;;;5016465;28;20222;-77
2024/02/25 08:04:14;;;;;;;4.60;3.63;;;8.60;99.90;;;;;;5016612;28;20317;-77
2024/02/25 08:06:57;;;;;;;4.05;3.60;;;8.60;99.90;;;;;;5014968;28;20218;-76
2024/02/25 08:09:24;;;;;;;4.30;3.88;;;8.60;99.90;;;;;;5022010;28;20229;-77
2024/02/25 08:12:03;;;;;;;3.70;3.40;;;8.70;99.90;;;;;;5010077;28;20352;-76
2024/02/25 08:14:41;;;;;;;4.88;4.13;;;8.70;99.90;;;;;;5026525;28;20680;-77
2024/02/25 08:17:13;;;;;;;4.47;4.18;;;8.80;99.90;;;;;;5007982;28;20238;-76
2024/02/25 08:19:52;;;;;;;4.28;3.97;;;8.80;99.90;;;;;;5021569;28;20719;-76
2024/02/25 08:22:22;;;;;;;4.03;3.72;;;8.80;99.90;;;;;;5016402;28;20225;-76
2024/02/25 08:25:11;;;;;;;6.00;4.50;;;8.90;99.90;;;;;;5005762;28;20226;-76
2024/02/25 08:27:41;;;;;;;4.80;4.18;;;8.90;99.90;;;;;;5016475;28;20226;-77
2024/02/25 08:30:40;;;;;;;;;;;;;;;;;;;;;
2024/02/25 08:33:07;;;;;;;7.05;5.13;;;9.00;99.90;;;;;;5016153;28;20447;-77
2024/02/25 08:35:37;;;;;;;6.22;5.72;;;9.00;99.90;;;;;;5027355;28;20240;-77
2024/02/25 08:38:06;;;;;;;3.72;3.33;;;9.10;99.90;;;;;;5017329;28;20241;-77
2024/02/25 08:40:35;;;;;;;5.20;3.88;;;9.10;99.90;;;;;;5016165;28;20241;-80
2024/02/25 08:43:08;;;;;;;3.55;3.25;;;9.10;99.90;;;;;;5007495;28;20262;-79
2024/02/25 08:45:37;;;;;;;4.03;3.22;;;9.20;99.90;;;;;;5015140;28;20222;-79
2024/02/25 08:48:08;;;;;;;4.57;3.05;;;9.20;99.90;;;;;;5016214;28;20225;-78
2024/02/25 08:50:35;;;;;;;3.83;3.53;;;9.20;99.90;;;;;;5016109;28;20287;-78
2024/02/25 08:53:02;;;;;;;5.10;3.38;;;9.20;99.90;;;;;;5031969;28;20242;-78
2024/02/25 08:55:32;;;;;;;4.28;3.58;;;9.30;99.90;;;;;;5015534;28;20294;-78
2024/02/25 08:58:04;;;;;;;4.65;3.00;;;9.30;99.90;;;;;;5015337;28;20225;-78
2024/02/25 09:00:31;;;;;;;3.90;3.60;;;9.40;99.90;;;;;;5004508;28;20668;-78
2024/02/25 09:02:59;;;;;;;3.60;3.30;;;9.40;99.90;;;;;;5023867;28;20569;-78
2024/02/25 09:05:27;;;;;;;4.00;3.65;;;9.50;99.90;;;;;;5014642;28;20226;-78
2024/02/25 09:07:59;;;;;;;4.57;3.42;;;9.50;99.90;;;;;;5018525;28;20225;-78
2024/02/25 09:10:26;;;;;;;4.90;3.55;;;9.60;99.90;;;;;;5016964;28;20228;-79
2024/02/25 09:12:56;;;;;;;4.22;3.83;;;9.70;99.90;;;;;;5015278;28;20675;-78
2024/02/25 09:15:26;;;;;;;4.05;3.22;;;9.70;99.90;;;;;;5015501;28;20222;-78
2024/02/25 09:18:40;;;;;;;;;;;;;;;;;;;;;
2024/02/25 09:21:09;;;;;;;5.07;4.53;;;9.90;99.90;;;;;;5017888;28;20663;-77
2024/02/25 09:23:57;;;;;;;4.43;4.03;;;9.90;99.90;;;;;;5021795;28;20566;-78
2024/02/25 09:26:24;;;;;;;7.05;4.15;;;9.90;99.90;;;;;;5001422;28;20544;-78
2024/02/25 09:29:10;;;;;;;4.47;4.15;;;10.00;99.90;;;;;;5014787;28;20287;-78
2024/02/25 09:31:38;;;;;;;5.30;3.78;;;10.10;99.90;;;;;;5014556;28;20229;-78
2024/02/25 09:34:26;;;;;;;5.10;4.60;;;10.10;99.90;;;;;;5014955;28;20536;-78
2024/02/25 09:36:53;;;;;;;4.30;4.00;;;10.20;99.90;;;;;;5013795;28;20671;-78
2024/02/25 09:39:20;;;;;;;4.15;3.75;;;10.20;99.90;;;;;;5020134;28;20225;-78
2024/02/25 09:41:54;;;;;;;3.97;3.20;;;10.30;99.90;;;;;;5013629;28;20239;-78
2024/02/25 09:45:09;;;;;;;4.53;4.05;;;10.40;99.90;;;;;;5014902;28;20230;-78
2024/02/25 09:47:44;;;;;;;4.10;3.70;;;10.40;99.90;;;;;;4997865;28;20282;-78
2024/02/25 09:50:16;;;;;;;6.80;5.50;;;10.50;99.90;;;;;;5028311;28;20221;-78
2024/02/25 09:52:46;;;;;;;6.10;4.50;;;10.50;99.90;;;;;;5005819;28;20233;-78
2024/02/25 09:55:14;;;;;;;3.95;3.65;;;10.60;99.90;;;;;;5016706;28;20755;-78
2024/02/25 09:57:58;;;;;;;6.70;5.90;;;10.70;99.90;;;;;;5006788;28;20246;-78
2024/02/25 10:00:44;;;;;;;6.65;5.95;;;10.80;99.90;;;;;;5004126;28;20214;-78
2024/02/25 10:03:16;;;;;;;5.03;4.20;;;10.90;99.90;;;;;;5013455;28;20252;-78
2024/02/25 10:05:43;;;;;;;4.68;3.70;;;10.90;99.90;;;;;;5014568;28;20691;-78
2024/02/25 10:08:11;;;;;;;3.60;3.30;;;11.00;99.90;;;;;;5013965;28;20305;-78
2024/02/25 10:10:41;;;;;;;5.30;4.80;;;11.10;99.90;;;;;;5013814;28;20280;-78
2024/02/25 10:13:18;;;;;;;4.50;4.20;;;11.20;99.90;;;;;;5003944;28;20238;-78
2024/02/25 10:16:00;;;;;;;5.25;4.78;;;11.30;99.90;;;;;;5028128;28;20698;-77
2024/02/25 10:18:29;;;;;;;4.70;4.30;;;11.30;99.90;;;;;;5005074;28;20241;-77
2024/02/25 10:21:07;;;;;;;5.05;4.47;;;11.40;99.90;;;;;;5014090;28;20300;-77
2024/02/25 10:23:37;;;;;;;4.30;3.90;;;11.50;99.90;;;;;;5006111;28;20300;-78
2024/02/25 10:26:14;;;;;;;4.22;3.67;;;11.50;99.90;;;;;;5016000;28;20260;-77
2024/02/25 10:28:42;;;;;;;3.40;3.10;;;11.60;99.90;;;;;;5013861;28;20252;-77
2024/02/25 10:31:11;;;;;;;2.97;2.75;;;11.60;99.90;;;;;;5003976;28;20679;-78
2024/02/25 10:33:40;;;;;;;3.60;2.90;;;11.70;99.90;;;;;;5014173;28;20237;-78
2024/02/25 10:36:09;;;;;;;3.30;2.85;;;11.80;99.80;;;;;;5013204;28;20226;-77
2024/02/25 10:38:40;;;;;;;2.80;2.60;;;11.80;99.80;;;;;;5013621;28;20284;-78
2024/02/25 10:41:31;;;;;;;3.92;3.30;;;11.90;99.90;;;;;;5003308;28;20221;-78
2024/02/25 10:44:03;;;;;;;8.57;5.85;;;12.00;99.90;;;;;;5016190;28;20230;-78
2024/02/25 10:46:42;;;;;;;6.25;4.70;;;12.10;99.90;;;;;;5013279;28;20233;-78
2024/02/25 10:49:21;;;;;;;5.80;3.97;;;12.20;99.90;;;;;;5012969;28;20237;-78
2024/02/25 10:51:50;;;;;;;4.03;3.63;;;12.20;99.50;;;;;;5013768;28;20245;-78
2024/02/25 10:54:18;;;;;;;3.42;3.03;;;12.20;98.60;;;;;;5011838;28;20230;-78
2024/02/25 10:56:56;;;;;;;;;;;;;;;;;;;;;
2024/02/25 10:59:25;;;;;;;3.55;3.10;;;12.30;98.80;;;;;;5013209;28;20293;-78
2024/02/25 11:01:57;;;;;;;3.05;2.20;;;12.30;98.60;;;;;;5013339;28;20699;-78
2024/02/25 11:04:26;;;;;;;4.20;3.47;;;12.40;98.20;;;;;;5012081;28;20229;-78
2024/02/25 11:06:59;;;;;;;3.70;3.03;;;12.40;97.90;;;;;;5011447;28;20226;-78
2024/02/25 11:09:30;;;;;;;6.15;4.90;;;12.50;97.90;;;;;;5013003;28;20237;-79
2024/02/25 11:12:21;;;;;;;4.95;3.50;;;12.50;97.90;;;;;;5008273;28;20287;-78
2024/02/25 11:14:50;;;;;;;2.60;2.40;;;12.60;98.10;;;;;;5012546;28;20685;-78
2024/02/25 11:17:24;;;;;;;3.47;2.30;;;12.70;97.70;;;;;;5020940;28;20265;-78
2024/02/25 11:20:04;;;;;;;2.25;2.05;;;12.80;97.40;;;;;;5015977;28;20225;-78
2024/02/25 11:22:55;;;;;;;3.10;2.30;;;12.80;96.70;;;;;;5005900;28;20691;-78
2024/02/25 11:25:40;;;;;;;2.40;2.10;;;12.90;96.30;;;;;;5024465;28;20671;-78
2024/02/25 11:28:14;;;;;;;2.47;2.10;;;12.90;95.60;;;;;;5013438;28;20308;-78
2024/02/25 11:30:43;;;;;;;2.30;1.63;;;13.00;95.50;;;;;;5016522;28;20220;-78
2024/02/25 11:33:39;;;;;;;1.95;1.65;;;13.00;95.30;;;;;;5012798;28;20241;-78
2024/02/25 11:36:15;;;;;;;2.10;1.80;;;13.10;94.50;;;;;;5011561;28;20237;-78
2024/02/25 11:38:44;;;;;;;2.07;1.87;;;13.10;93.90;;;;;;5012937;28;20225;-78
2024/02/25 11:41:12;;;;;;;1.50;1.40;;;13.10;94.20;;;;;;5012515;28;20967;-78
2024/02/25 11:43:48;;;;;;;2.13;1.40;;;13.20;93.90;;;;;;5012718;28;20592;-78
2024/02/25 11:46:16;;;;;;;2.13;1.50;;;13.20;93.90;;;;;;5012540;28;20310;-79
2024/02/25 11:49:07;;;;;;;1.67;1.50;;;13.30;93.90;;;;;;5012533;28;20699;-79
2024/02/25 11:51:44;;;;;;;2.10;1.70;;;13.40;94.00;;;;;;5015398;28;20464;-78
2024/02/25 11:54:11;;;;;;;1.90;1.33;;;13.40;93.90;;;;;;5032354;28;20253;-78
2024/02/25 11:56:58;;;;;;;2.15;1.60;;;13.50;93.00;;;;;;5029191;28;20511;-78
2024/02/25 11:59:32;;;;;;;1.58;1.38;;;13.50;92.20;;;;;;5031788;28;20312;-78
2024/02/25 12:02:00;;;;;;;1.90;1.30;;;13.50;92.20;;;;;;5030105;28;20693;-77
2024/02/25 12:04:27;;;;;;;2.23;1.57;;;13.50;92.20;;;;;;5021025;28;20240;-78
2024/02/25 12:06:55;;;;;;;1.40;1.23;;;13.50;92.20;;;;;;5032373;28;20553;-77
2024/02/25 12:09:24;;;;;;;2.57;1.87;;;13.50;92.00;;;;;;5031757;28;20475;-78
2024/02/25 12:11:52;;;;;;;2.60;1.40;;;13.50;92.10;;;;;;5021715;28;20483;-77
2024/02/25 12:14:20;;;;;;;3.87;2.37;;;13.60;92.50;;;;;;5019815;28;20570;-77
2024/02/25 12:16:53;;;;;;;1.80;1.70;;;13.60;92.70;;;;;;5031748;28;20503;-78
2024/02/25 12:19:27;;;;;;;2.10;1.60;;;13.60;92.70;;;;;;5032156;28;20837;-78
2024/02/25 12:21:59;;;;;;;1.50;1.40;;;13.60;91.80;;;;;;5032146;28;20468;-77
2024/02/25 12:24:33;;;;;;;1.73;1.33;;;13.70;91.50;;;;;;5031730;28;20526;-77
2024/02/25 12:27:09;;;;;;;1.83;1.30;;;13.70;91.20;;;;;;5030520;28;20486;-77
2024/02/25 12:29:47;;;;;;;1.20;1.10;;;13.70;89.40;;;;;;5032145;28;20498;-77
2024/02/25 12:32:22;;;;;;;1.03;0.93;;;13.70;88.30;;;;;;5031541;28;20546;-78
2024/02/25 12:35:00;;;;;;;3.30;1.50;;;13.70;87.90;;;;;;5021705;28;20475;-79
2024/02/25 12:40:11;;;;;;;1.90;1.60;;;13.80;87.90;;;;;;5014994;28;20500;-77
2024/02/25 12:42:47;;;;;;;2.47;1.23;;;13.90;88.70;;;;;;5035187;28;20488;-78
2024/02/25 12:45:14;;;;;;;1.47;1.37;;;13.90;88.50;;;;;;5035324;28;20498;-77
2024/02/25 12:47:41;;;;;;;2.53;1.53;;;14.00;87.70;;;;;;5017043;28;20470;-77
2024/02/25 12:50:09;;;;;;;1.47;1.13;;;14.00;85.40;;;;;;5007355;28;20475;-77
2024/02/25 12:52:43;;;;;;;3.60;2.27;;;14.00;84.80;;;;;;5015326;28;20481;-78
2024/02/25 12:55:10;;;;;;;3.73;3.10;;;14.00;84.60;;;;;;5015376;28;20473;-78
2024/02/25 12:57:39;;;;;;;4.40;4.00;;;14.10;85.30;;;;;;5015022;28;20465;-77
2024/02/25 13:00:08;;;;;;;1.73;1.23;;;14.10;85.50;;;;;;5014695;28;21014;-79
2024/02/25 13:02:37;;;;;;;1.50;1.40;;;14.10;82.40;;;;;;5020328;28;20798;-79
2024/02/25 13:05:12;;;;;;;1.53;1.40;;;14.20;83.10;;;;;;5014147;28;20472;-79
2024/02/25 13:07:40;;;;;;;2.30;2.10;;;14.20;83.50;;;;;;5015021;28;20953;-79
2024/02/25 13:10:11;;;;;;;1.47;1.30;;;14.20;83.90;;;;;;5015443;28;20465;-79
2024/02/25 13:12:39;;;;;;;2.70;2.20;;;14.20;82.30;;;;;;5014820;28;20484;-79
2024/02/25 13:15:06;;;;;;;4.67;3.90;;;14.30;83.00;;;;;;5014769;28;20485;-79
2024/02/25 13:17:37;;;;;;;5.13;2.80;;;14.30;83.90;;;;;;5015263;28;20473;-79